sensor_id;sensor_type;location;lat;lon;timestamp;P1;durP1;ratioP1;P2;durP2;ratioP2
46897;SDS011;32646;50.958;6.258;2023-08-30T00:01:04;8.75;;;5.13;;
46897;SDS011;32646;50.958;6.258;2023-08-30T00:03:31;13.27;;;5.55;;
46897;SDS011;32646;50.958;6.258;2023-08-30T00:06:02;9.73;;;5.20;;
46897;SDS011;32646;50.958;6.258;2023-08-30T00:08:32;10.20;;;5.63;;
46897;SDS011;32646;50.958;6.258;2023-08-30T00:10:59;11.35;;;5.80;;
46897;SDS011;32646;50.958;6.258;2023-08-30T00:13:26;12.75;;;5.93;;
46897;SDS011;32646;50.958;6.258;2023-08-30T00:15:55;9.68;;;5.70;;
46897;SDS011;32646;50.958;6.258;2023-08-30T00:18:21;9.32;;;5.22;;
46897;SDS011;32646;50.958;6.258;2023-08-30T00:20:48;10.55;;;5.78;;
46897;SDS011;32646;50.958;6.258;2023-08-30T00:23:15;11.25;;;6.63;;
46897;SDS011;32646;50.958;6.258;2023-08-30T00:25:41;11.35;;;5.82;;
46897;SDS011;32646;50.958;6.258;2023-08-30T00:28:08;10.57;;;5.95;;
46897;SDS011;32646;50.958;6.258;2023-08-30T00:30:35;12.35;;;6.00;;
46897;SDS011;32646;50.958;6.258;2023-08-30T00:33:02;12.77;;;6.20;;
46897;SDS011;32646;50.958;6.258;2023-08-30T00:35:29;11.10;;;6.25;;
46897;SDS011;32646;50.958;6.258;2023-08-30T00:37:56;11.50;;;5.88;;
46897;SDS011;32646;50.958;6.258;2023-08-30T00:40:23;12.80;;;6.93;;
46897;SDS011;32646;50.958;6.258;2023-08-30T00:42:50;10.32;;;5.75;;
46897;SDS011;32646;50.958;6.258;2023-08-30T00:45:16;10.65;;;6.20;;
46897;SDS011;32646;50.958;6.258;2023-08-30T00:47:43;12.10;;;6.10;;
46897;SDS011;32646;50.958;6.258;2023-08-30T00:50:10;11.82;;;6.28;;
46897;SDS011;32646;50.958;6.258;2023-08-30T00:52:37;9.35;;;5.75;;
46897;SDS011;32646;50.958;6.258;2023-08-30T00:55:04;13.57;;;7.25;;
46897;SDS011;32646;50.958;6.258;2023-08-30T00:57:31;13.82;;;7.68;;
46897;SDS011;32646;50.958;6.258;2023-08-30T00:59:57;14.50;;;6.45;;
46897;SDS011;32646;50.958;6.258;2023-08-30T01:02:24;13.60;;;7.03;;
46897;SDS011;32646;50.958;6.258;2023-08-30T01:04:51;13.93;;;7.60;;
46897;SDS011;32646;50.958;6.258;2023-08-30T01:07:18;11.85;;;6.00;;
46897;SDS011;32646;50.958;6.258;2023-08-30T01:09:44;13.50;;;7.55;;
46897;SDS011;32646;50.958;6.258;2023-08-30T01:12:17;11.43;;;6.78;;
46897;SDS011;32646;50.958;6.258;2023-08-30T01:17:38;13.20;;;7.28;;
46897;SDS011;32646;50.958;6.258;2023-08-30T01:20:07;14.15;;;7.45;;
46897;SDS011;32646;50.958;6.258;2023-08-30T01:28:26;11.20;;;6.43;;
46897;SDS011;32646;50.958;6.258;2023-08-30T01:30:55;12.60;;;7.03;;
46897;SDS011;32646;50.958;6.258;2023-08-30T01:33:24;15.27;;;8.30;;
46897;SDS011;32646;50.958;6.258;2023-08-30T01:35:51;14.13;;;7.63;;
46897;SDS011;32646;50.958;6.258;2023-08-30T01:38:20;13.43;;;7.53;;
46897;SDS011;32646;50.958;6.258;2023-08-30T01:40:47;13.88;;;7.68;;
46897;SDS011;32646;50.958;6.258;2023-08-30T01:43:14;12.80;;;7.85;;
46897;SDS011;32646;50.958;6.258;2023-08-30T01:45:43;15.13;;;8.20;;
46897;SDS011;32646;50.958;6.258;2023-08-30T01:48:11;16.65;;;8.80;;
46897;SDS011;32646;50.958;6.258;2023-08-30T01:50:39;15.18;;;7.55;;
46897;SDS011;32646;50.958;6.258;2023-08-30T01:53:07;17.63;;;8.48;;
46897;SDS011;32646;50.958;6.258;2023-08-30T01:55:37;15.35;;;8.52;;
46897;SDS011;32646;50.958;6.258;2023-08-30T01:58:05;17.15;;;9.02;;
46897;SDS011;32646;50.958;6.258;2023-08-30T02:00:34;14.73;;;8.35;;
46897;SDS011;32646;50.958;6.258;2023-08-30T02:03:08;18.23;;;8.32;;
46897;SDS011;32646;50.958;6.258;2023-08-30T02:08:38;13.63;;;8.40;;
46897;SDS011;32646;50.958;6.258;2023-08-30T02:11:14;14.93;;;8.05;;
46897;SDS011;32646;50.958;6.258;2023-08-30T02:13:45;15.25;;;8.40;;
46897;SDS011;32646;50.958;6.258;2023-08-30T02:16:12;16.80;;;7.95;;
46897;SDS011;32646;50.958;6.258;2023-08-30T02:18:40;14.40;;;8.48;;
46897;SDS011;32646;50.958;6.258;2023-08-30T02:21:07;16.40;;;8.38;;
46897;SDS011;32646;50.958;6.258;2023-08-30T02:23:34;15.68;;;8.65;;
46897;SDS011;32646;50.958;6.258;2023-08-30T02:26:01;15.60;;;7.65;;
46897;SDS011;32646;50.958;6.258;2023-08-30T02:28:28;15.57;;;8.07;;
46897;SDS011;32646;50.958;6.258;2023-08-30T02:30:55;14.57;;;8.15;;
46897;SDS011;32646;50.958;6.258;2023-08-30T02:33:21;20.15;;;8.85;;
46897;SDS011;32646;50.958;6.258;2023-08-30T02:35:48;16.00;;;8.65;;
46897;SDS011;32646;50.958;6.258;2023-08-30T02:38:15;18.17;;;8.68;;
46897;SDS011;32646;50.958;6.258;2023-08-30T02:40:41;15.45;;;9.13;;
46897;SDS011;32646;50.958;6.258;2023-08-30T02:43:08;16.67;;;9.20;;
46897;SDS011;32646;50.958;6.258;2023-08-30T02:45:35;17.23;;;8.18;;
46897;SDS011;32646;50.958;6.258;2023-08-30T02:48:01;16.85;;;8.20;;
46897;SDS011;32646;50.958;6.258;2023-08-30T02:50:28;17.98;;;9.45;;
46897;SDS011;32646;50.958;6.258;2023-08-30T02:52:55;15.43;;;8.38;;
46897;SDS011;32646;50.958;6.258;2023-08-30T02:55:22;16.55;;;7.85;;
46897;SDS011;32646;50.958;6.258;2023-08-30T02:57:48;16.90;;;9.30;;
46897;SDS011;32646;50.958;6.258;2023-08-30T03:00:15;16.50;;;8.23;;
46897;SDS011;32646;50.958;6.258;2023-08-30T03:02:42;14.50;;;8.25;;
46897;SDS011;32646;50.958;6.258;2023-08-30T03:05:08;17.75;;;9.57;;
46897;SDS011;32646;50.958;6.258;2023-08-30T03:07:35;22.35;;;9.98;;
46897;SDS011;32646;50.958;6.258;2023-08-30T03:10:02;19.50;;;8.82;;
46897;SDS011;32646;50.958;6.258;2023-08-30T03:12:29;16.90;;;8.70;;
46897;SDS011;32646;50.958;6.258;2023-08-30T03:14:55;15.65;;;9.32;;
46897;SDS011;32646;50.958;6.258;2023-08-30T03:17:22;17.33;;;10.25;;
46897;SDS011;32646;50.958;6.258;2023-08-30T03:19:50;21.08;;;10.13;;
46897;SDS011;32646;50.958;6.258;2023-08-30T03:22:20;16.67;;;9.40;;
46897;SDS011;32646;50.958;6.258;2023-08-30T03:24:46;21.58;;;9.82;;
46897;SDS011;32646;50.958;6.258;2023-08-30T03:27:13;16.65;;;8.82;;
46897;SDS011;32646;50.958;6.258;2023-08-30T03:29:40;19.05;;;9.30;;
46897;SDS011;32646;50.958;6.258;2023-08-30T03:32:06;17.70;;;9.70;;
46897;SDS011;32646;50.958;6.258;2023-08-30T03:34:33;20.35;;;9.45;;
46897;SDS011;32646;50.958;6.258;2023-08-30T03:37:00;15.93;;;9.32;;
46897;SDS011;32646;50.958;6.258;2023-08-30T03:39:26;19.20;;;9.55;;
46897;SDS011;32646;50.958;6.258;2023-08-30T03:41:53;19.50;;;9.77;;
46897;SDS011;32646;50.958;6.258;2023-08-30T03:44:19;16.48;;;8.85;;
46897;SDS011;32646;50.958;6.258;2023-08-30T03:46:46;15.77;;;8.40;;
46897;SDS011;32646;50.958;6.258;2023-08-30T03:49:13;18.63;;;9.55;;
46897;SDS011;32646;50.958;6.258;2023-08-30T03:51:39;16.45;;;8.57;;
46897;SDS011;32646;50.958;6.258;2023-08-30T03:54:06;16.42;;;8.60;;
46897;SDS011;32646;50.958;6.258;2023-08-30T03:56:32;17.60;;;8.75;;
46897;SDS011;32646;50.958;6.258;2023-08-30T03:58:59;17.23;;;8.95;;
46897;SDS011;32646;50.958;6.258;2023-08-30T04:01:26;14.68;;;7.90;;
46897;SDS011;32646;50.958;6.258;2023-08-30T04:03:52;16.85;;;8.88;;
46897;SDS011;32646;50.958;6.258;2023-08-30T04:06:19;16.58;;;8.75;;
46897;SDS011;32646;50.958;6.258;2023-08-30T04:08:46;17.15;;;8.80;;
46897;SDS011;32646;50.958;6.258;2023-08-30T04:11:12;15.45;;;8.57;;
46897;SDS011;32646;50.958;6.258;2023-08-30T04:13:39;14.95;;;8.30;;
46897;SDS011;32646;50.958;6.258;2023-08-30T04:16:06;12.10;;;7.53;;
46897;SDS011;32646;50.958;6.258;2023-08-30T04:18:32;14.38;;;8.02;;
46897;SDS011;32646;50.958;6.258;2023-08-30T04:20:59;16.60;;;9.50;;
46897;SDS011;32646;50.958;6.258;2023-08-30T04:23:26;16.77;;;8.07;;
46897;SDS011;32646;50.958;6.258;2023-08-30T04:25:52;15.70;;;8.32;;
46897;SDS011;32646;50.958;6.258;2023-08-30T04:28:19;16.05;;;9.30;;
46897;SDS011;32646;50.958;6.258;2023-08-30T04:30:46;14.52;;;8.05;;
46897;SDS011;32646;50.958;6.258;2023-08-30T04:33:13;14.65;;;8.52;;
46897;SDS011;32646;50.958;6.258;2023-08-30T04:35:39;15.77;;;7.95;;
46897;SDS011;32646;50.958;6.258;2023-08-30T04:38:06;13.02;;;7.63;;
46897;SDS011;32646;50.958;6.258;2023-08-30T04:40:33;16.08;;;8.57;;
46897;SDS011;32646;50.958;6.258;2023-08-30T04:43:00;16.27;;;7.97;;
46897;SDS011;32646;50.958;6.258;2023-08-30T04:45:26;15.25;;;8.15;;
46897;SDS011;32646;50.958;6.258;2023-08-30T04:47:53;13.85;;;7.40;;
46897;SDS011;32646;50.958;6.258;2023-08-30T04:50:20;11.68;;;7.03;;
46897;SDS011;32646;50.958;6.258;2023-08-30T04:52:46;15.27;;;7.32;;
46897;SDS011;32646;50.958;6.258;2023-08-30T04:55:13;13.10;;;7.28;;
46897;SDS011;32646;50.958;6.258;2023-08-30T04:57:39;14.73;;;7.35;;
46897;SDS011;32646;50.958;6.258;2023-08-30T05:00:06;11.93;;;7.35;;
46897;SDS011;32646;50.958;6.258;2023-08-30T05:02:33;12.77;;;7.70;;
46897;SDS011;32646;50.958;6.258;2023-08-30T05:05:00;12.52;;;7.38;;
46897;SDS011;32646;50.958;6.258;2023-08-30T05:07:27;12.40;;;7.03;;
46897;SDS011;32646;50.958;6.258;2023-08-30T05:09:53;13.63;;;7.65;;
46897;SDS011;32646;50.958;6.258;2023-08-30T05:12:20;13.57;;;7.32;;
46897;SDS011;32646;50.958;6.258;2023-08-30T05:14:46;12.05;;;6.35;;
46897;SDS011;32646;50.958;6.258;2023-08-30T05:17:13;11.05;;;6.45;;
46897;SDS011;32646;50.958;6.258;2023-08-30T05:19:40;11.52;;;6.65;;
46897;SDS011;32646;50.958;6.258;2023-08-30T05:22:06;13.32;;;7.32;;
46897;SDS011;32646;50.958;6.258;2023-08-30T05:24:33;12.55;;;6.97;;
46897;SDS011;32646;50.958;6.258;2023-08-30T05:26:59;13.13;;;6.68;;
46897;SDS011;32646;50.958;6.258;2023-08-30T05:29:26;12.63;;;7.15;;
46897;SDS011;32646;50.958;6.258;2023-08-30T05:31:53;13.48;;;7.22;;
46897;SDS011;32646;50.958;6.258;2023-08-30T05:34:19;12.43;;;7.32;;
46897;SDS011;32646;50.958;6.258;2023-08-30T05:36:46;12.77;;;6.93;;
46897;SDS011;32646;50.958;6.258;2023-08-30T05:39:12;12.30;;;6.53;;
46897;SDS011;32646;50.958;6.258;2023-08-30T05:41:39;12.15;;;6.13;;
46897;SDS011;32646;50.958;6.258;2023-08-30T05:44:06;11.38;;;5.75;;
46897;SDS011;32646;50.958;6.258;2023-08-30T05:46:32;14.13;;;6.15;;
46897;SDS011;32646;50.958;6.258;2023-08-30T05:48:59;10.18;;;5.70;;
46897;SDS011;32646;50.958;6.258;2023-08-30T05:51:26;12.00;;;6.25;;
46897;SDS011;32646;50.958;6.258;2023-08-30T05:53:52;9.65;;;5.05;;
46897;SDS011;32646;50.958;6.258;2023-08-30T05:56:19;9.50;;;5.57;;
46897;SDS011;32646;50.958;6.258;2023-08-30T05:58:45;9.98;;;5.28;;
46897;SDS011;32646;50.958;6.258;2023-08-30T06:01:12;11.50;;;4.82;;
46897;SDS011;32646;50.958;6.258;2023-08-30T06:03:39;9.45;;;5.15;;
46897;SDS011;32646;50.958;6.258;2023-08-30T06:06:06;8.23;;;3.95;;
46897;SDS011;32646;50.958;6.258;2023-08-30T06:08:33;7.53;;;3.65;;
46897;SDS011;32646;50.958;6.258;2023-08-30T06:10:59;6.65;;;4.00;;
46897;SDS011;32646;50.958;6.258;2023-08-30T06:13:26;7.93;;;3.35;;
46897;SDS011;32646;50.958;6.258;2023-08-30T06:15:52;10.23;;;3.83;;
46897;SDS011;32646;50.958;6.258;2023-08-30T06:18:19;8.43;;;3.78;;
46897;SDS011;32646;50.958;6.258;2023-08-30T06:20:46;6.30;;;3.33;;
46897;SDS011;32646;50.958;6.258;2023-08-30T06:23:13;7.88;;;3.75;;
46897;SDS011;32646;50.958;6.258;2023-08-30T06:25:41;7.97;;;3.95;;
46897;SDS011;32646;50.958;6.258;2023-08-30T06:28:07;10.18;;;4.32;;
46897;SDS011;32646;50.958;6.258;2023-08-30T06:30:34;6.95;;;3.75;;
46897;SDS011;32646;50.958;6.258;2023-08-30T06:33:01;6.88;;;3.35;;
46897;SDS011;32646;50.958;6.258;2023-08-30T06:35:28;7.50;;;3.42;;
46897;SDS011;32646;50.958;6.258;2023-08-30T06:37:55;9.18;;;3.90;;
46897;SDS011;32646;50.958;6.258;2023-08-30T06:40:21;6.10;;;3.35;;
46897;SDS011;32646;50.958;6.258;2023-08-30T06:42:48;11.77;;;3.90;;
46897;SDS011;32646;50.958;6.258;2023-08-30T06:45:14;9.18;;;4.00;;
46897;SDS011;32646;50.958;6.258;2023-08-30T06:47:41;7.55;;;3.15;;
46897;SDS011;32646;50.958;6.258;2023-08-30T06:50:08;6.55;;;3.20;;
46897;SDS011;32646;50.958;6.258;2023-08-30T06:52:34;6.20;;;3.20;;
46897;SDS011;32646;50.958;6.258;2023-08-30T06:55:01;6.78;;;3.30;;
46897;SDS011;32646;50.958;6.258;2023-08-30T06:57:28;5.60;;;3.10;;
46897;SDS011;32646;50.958;6.258;2023-08-30T06:59:54;7.53;;;3.70;;
46897;SDS011;32646;50.958;6.258;2023-08-30T07:02:21;5.57;;;2.78;;
46897;SDS011;32646;50.958;6.258;2023-08-30T07:04:48;7.72;;;3.55;;
46897;SDS011;32646;50.958;6.258;2023-08-30T07:07:14;8.30;;;3.00;;
46897;SDS011;32646;50.958;6.258;2023-08-30T07:09:41;6.38;;;2.95;;
46897;SDS011;32646;50.958;6.258;2023-08-30T07:12:07;6.82;;;2.95;;
46897;SDS011;32646;50.958;6.258;2023-08-30T07:14:35;7.05;;;2.60;;
46897;SDS011;32646;50.958;6.258;2023-08-30T07:17:02;5.88;;;2.85;;
46897;SDS011;32646;50.958;6.258;2023-08-30T07:19:29;5.75;;;2.47;;
46897;SDS011;32646;50.958;6.258;2023-08-30T07:21:55;6.25;;;3.20;;
46897;SDS011;32646;50.958;6.258;2023-08-30T07:24:22;5.15;;;2.42;;
46897;SDS011;32646;50.958;6.258;2023-08-30T07:26:48;5.70;;;3.17;;
46897;SDS011;32646;50.958;6.258;2023-08-30T07:29:15;5.03;;;2.25;;
46897;SDS011;32646;50.958;6.258;2023-08-30T07:31:41;5.43;;;2.75;;
46897;SDS011;32646;50.958;6.258;2023-08-30T07:34:08;6.38;;;2.85;;
46897;SDS011;32646;50.958;6.258;2023-08-30T07:36:35;5.47;;;2.38;;
46897;SDS011;32646;50.958;6.258;2023-08-30T07:39:13;6.28;;;2.63;;
46897;SDS011;32646;50.958;6.258;2023-08-30T07:41:39;5.35;;;2.60;;
46897;SDS011;32646;50.958;6.258;2023-08-30T07:44:06;5.85;;;2.40;;
46897;SDS011;32646;50.958;6.258;2023-08-30T07:46:33;4.68;;;2.35;;
46897;SDS011;32646;50.958;6.258;2023-08-30T07:48:59;5.80;;;2.47;;
46897;SDS011;32646;50.958;6.258;2023-08-30T07:51:26;4.28;;;2.10;;
46897;SDS011;32646;50.958;6.258;2023-08-30T07:53:52;5.30;;;2.20;;
46897;SDS011;32646;50.958;6.258;2023-08-30T07:56:19;5.28;;;2.13;;
46897;SDS011;32646;50.958;6.258;2023-08-30T07:58:46;5.22;;;2.70;;
46897;SDS011;32646;50.958;6.258;2023-08-30T08:01:12;5.75;;;2.45;;
46897;SDS011;32646;50.958;6.258;2023-08-30T08:03:39;9.48;;;2.90;;
46897;SDS011;32646;50.958;6.258;2023-08-30T08:06:21;6.47;;;3.05;;
46897;SDS011;32646;50.958;6.258;2023-08-30T08:08:48;6.03;;;2.80;;
46897;SDS011;32646;50.958;6.258;2023-08-30T08:11:15;6.55;;;3.15;;
46897;SDS011;32646;50.958;6.258;2023-08-30T08:13:42;6.55;;;3.00;;
46897;SDS011;32646;50.958;6.258;2023-08-30T08:16:09;6.50;;;2.88;;
46897;SDS011;32646;50.958;6.258;2023-08-30T08:18:35;5.93;;;3.15;;
46897;SDS011;32646;50.958;6.258;2023-08-30T08:21:02;8.27;;;3.58;;
46897;SDS011;32646;50.958;6.258;2023-08-30T08:23:29;6.32;;;3.15;;
46897;SDS011;32646;50.958;6.258;2023-08-30T08:25:59;6.00;;;3.00;;
46897;SDS011;32646;50.958;6.258;2023-08-30T08:28:26;6.22;;;2.88;;
46897;SDS011;32646;50.958;6.258;2023-08-30T08:30:53;5.05;;;2.88;;
46897;SDS011;32646;50.958;6.258;2023-08-30T08:33:20;5.68;;;3.00;;
46897;SDS011;32646;50.958;6.258;2023-08-30T08:35:47;6.95;;;2.47;;
46897;SDS011;32646;50.958;6.258;2023-08-30T08:38:14;5.75;;;2.38;;
46897;SDS011;32646;50.958;6.258;2023-08-30T08:40:41;5.90;;;3.00;;
46897;SDS011;32646;50.958;6.258;2023-08-30T08:43:11;6.05;;;3.35;;
46897;SDS011;32646;50.958;6.258;2023-08-30T08:45:38;5.05;;;2.60;;
46897;SDS011;32646;50.958;6.258;2023-08-30T08:48:05;5.95;;;2.50;;
46897;SDS011;32646;50.958;6.258;2023-08-30T08:50:33;11.07;;;2.40;;
46897;SDS011;32646;50.958;6.258;2023-08-30T08:53:03;5.80;;;2.60;;
46897;SDS011;32646;50.958;6.258;2023-08-30T08:55:30;6.20;;;2.45;;
46897;SDS011;32646;50.958;6.258;2023-08-30T08:57:58;6.72;;;2.78;;
46897;SDS011;32646;50.958;6.258;2023-08-30T09:00:24;5.55;;;2.60;;
46897;SDS011;32646;50.958;6.258;2023-08-30T09:02:51;5.95;;;2.60;;
46897;SDS011;32646;50.958;6.258;2023-08-30T09:05:20;5.30;;;2.45;;
46897;SDS011;32646;50.958;6.258;2023-08-30T09:07:46;4.72;;;2.20;;
46897;SDS011;32646;50.958;6.258;2023-08-30T09:10:13;5.75;;;2.10;;
46897;SDS011;32646;50.958;6.258;2023-08-30T09:12:40;6.82;;;1.77;;
46897;SDS011;32646;50.958;6.258;2023-08-30T09:15:09;5.05;;;1.88;;
46897;SDS011;32646;50.958;6.258;2023-08-30T09:17:39;4.50;;;1.90;;
46897;SDS011;32646;50.958;6.258;2023-08-30T09:20:09;4.05;;;2.08;;
46897;SDS011;32646;50.958;6.258;2023-08-30T09:22:38;4.15;;;1.60;;
46897;SDS011;32646;50.958;6.258;2023-08-30T09:25:08;5.03;;;1.80;;
46897;SDS011;32646;50.958;6.258;2023-08-30T09:27:36;3.92;;;1.40;;
46897;SDS011;32646;50.958;6.258;2023-08-30T09:30:06;4.00;;;1.30;;
46897;SDS011;32646;50.958;6.258;2023-08-30T09:32:38;4.13;;;1.70;;
46897;SDS011;32646;50.958;6.258;2023-08-30T09:35:06;3.88;;;1.48;;
46897;SDS011;32646;50.958;6.258;2023-08-30T09:37:34;4.05;;;1.70;;
46897;SDS011;32646;50.958;6.258;2023-08-30T09:40:00;3.58;;;1.40;;
46897;SDS011;32646;50.958;6.258;2023-08-30T09:42:27;8.10;;;2.05;;
46897;SDS011;32646;50.958;6.258;2023-08-30T09:44:54;4.43;;;2.13;;
46897;SDS011;32646;50.958;6.258;2023-08-30T09:47:23;6.13;;;2.00;;
46897;SDS011;32646;50.958;6.258;2023-08-30T09:49:51;4.63;;;1.63;;
46897;SDS011;32646;50.958;6.258;2023-08-30T09:52:23;7.68;;;2.17;;
46897;SDS011;32646;50.958;6.258;2023-08-30T09:54:51;4.38;;;1.92;;
46897;SDS011;32646;50.958;6.258;2023-08-30T09:57:18;4.68;;;2.10;;
46897;SDS011;32646;50.958;6.258;2023-08-30T09:59:46;5.47;;;2.38;;
46897;SDS011;32646;50.958;6.258;2023-08-30T10:02:14;6.03;;;2.30;;
46897;SDS011;32646;50.958;6.258;2023-08-30T10:04:41;5.85;;;2.58;;
46897;SDS011;32646;50.958;6.258;2023-08-30T10:07:09;6.07;;;2.63;;
46897;SDS011;32646;50.958;6.258;2023-08-30T10:09:40;5.45;;;2.83;;
46897;SDS011;32646;50.958;6.258;2023-08-30T10:12:28;5.22;;;2.85;;
46897;SDS011;32646;50.958;6.258;2023-08-30T10:14:55;6.28;;;2.90;;
46897;SDS011;32646;50.958;6.258;2023-08-30T10:17:27;8.45;;;3.15;;
46897;SDS011;32646;50.958;6.258;2023-08-30T10:19:56;5.50;;;2.60;;
46897;SDS011;32646;50.958;6.258;2023-08-30T10:22:23;6.22;;;2.88;;
46897;SDS011;32646;50.958;6.258;2023-08-30T10:24:55;7.13;;;3.60;;
46897;SDS011;32646;50.958;6.258;2023-08-30T10:27:46;6.65;;;3.67;;
46897;SDS011;32646;50.958;6.258;2023-08-30T10:30:14;7.53;;;3.38;;
46897;SDS011;32646;50.958;6.258;2023-08-30T10:32:43;6.03;;;3.63;;
46897;SDS011;32646;50.958;6.258;2023-08-30T10:35:11;6.90;;;3.42;;
46897;SDS011;32646;50.958;6.258;2023-08-30T10:37:39;6.65;;;3.75;;
46897;SDS011;32646;50.958;6.258;2023-08-30T10:40:07;7.13;;;4.00;;
46897;SDS011;32646;50.958;6.258;2023-08-30T10:42:34;8.23;;;3.20;;
46897;SDS011;32646;50.958;6.258;2023-08-30T10:45:05;7.70;;;3.47;;
46897;SDS011;32646;50.958;6.258;2023-08-30T10:47:39;6.93;;;3.47;;
46897;SDS011;32646;50.958;6.258;2023-08-30T10:50:10;6.90;;;3.90;;
46897;SDS011;32646;50.958;6.258;2023-08-30T10:52:38;7.13;;;3.25;;
46897;SDS011;32646;50.958;6.258;2023-08-30T10:55:14;9.10;;;4.00;;
46897;SDS011;32646;50.958;6.258;2023-08-30T10:57:41;6.05;;;3.25;;
46897;SDS011;32646;50.958;6.258;2023-08-30T11:02:36;7.63;;;4.13;;
46897;SDS011;32646;50.958;6.258;2023-08-30T11:05:08;7.32;;;3.53;;
46897;SDS011;32646;50.958;6.258;2023-08-30T11:07:35;6.57;;;3.55;;
46897;SDS011;32646;50.958;6.258;2023-08-30T11:10:05;8.18;;;4.03;;
46897;SDS011;32646;50.958;6.258;2023-08-30T11:12:32;6.53;;;2.97;;
46897;SDS011;32646;50.958;6.258;2023-08-30T11:14:59;7.80;;;4.10;;
46897;SDS011;32646;50.958;6.258;2023-08-30T11:17:26;7.03;;;3.35;;
46897;SDS011;32646;50.958;6.258;2023-08-30T11:20:09;8.38;;;4.03;;
46897;SDS011;32646;50.958;6.258;2023-08-30T11:22:37;6.80;;;3.22;;
46897;SDS011;32646;50.958;6.258;2023-08-30T11:25:04;6.63;;;4.00;;
46897;SDS011;32646;50.958;6.258;2023-08-30T11:27:31;7.72;;;4.22;;
46897;SDS011;32646;50.958;6.258;2023-08-30T11:30:00;6.82;;;3.80;;
46897;SDS011;32646;50.958;6.258;2023-08-30T11:32:27;7.80;;;3.85;;
46897;SDS011;32646;50.958;6.258;2023-08-30T11:34:57;6.88;;;4.05;;
46897;SDS011;32646;50.958;6.258;2023-08-30T11:37:25;9.85;;;3.97;;
46897;SDS011;32646;50.958;6.258;2023-08-30T11:39:53;8.38;;;3.67;;
46897;SDS011;32646;50.958;6.258;2023-08-30T11:42:21;7.65;;;4.25;;
46897;SDS011;32646;50.958;6.258;2023-08-30T11:44:49;7.43;;;3.72;;
46897;SDS011;32646;50.958;6.258;2023-08-30T11:47:19;5.25;;;2.75;;
46897;SDS011;32646;50.958;6.258;2023-08-30T11:49:48;5.20;;;3.00;;
46897;SDS011;32646;50.958;6.258;2023-08-30T11:52:16;5.75;;;2.70;;
46897;SDS011;32646;50.958;6.258;2023-08-30T11:54:44;5.13;;;3.05;;
46897;SDS011;32646;50.958;6.258;2023-08-30T11:57:11;5.90;;;3.00;;
46897;SDS011;32646;50.958;6.258;2023-08-30T11:59:37;4.88;;;2.42;;
46897;SDS011;32646;50.958;6.258;2023-08-30T12:02:06;6.53;;;3.08;;
46897;SDS011;32646;50.958;6.258;2023-08-30T12:04:46;6.45;;;3.03;;
46897;SDS011;32646;50.958;6.258;2023-08-30T12:07:21;6.57;;;2.80;;
46897;SDS011;32646;50.958;6.258;2023-08-30T12:09:48;5.85;;;2.63;;
46897;SDS011;32646;50.958;6.258;2023-08-30T12:12:15;5.10;;;2.95;;
46897;SDS011;32646;50.958;6.258;2023-08-30T12:14:41;5.40;;;2.70;;
46897;SDS011;32646;50.958;6.258;2023-08-30T12:17:08;6.55;;;2.80;;
46897;SDS011;32646;50.958;6.258;2023-08-30T12:19:35;5.80;;;3.35;;
46897;SDS011;32646;50.958;6.258;2023-08-30T12:22:05;6.63;;;3.05;;
46897;SDS011;32646;50.958;6.258;2023-08-30T12:24:42;5.10;;;2.75;;
46897;SDS011;32646;50.958;6.258;2023-08-30T12:27:09;4.95;;;2.22;;
46897;SDS011;32646;50.958;6.258;2023-08-30T12:29:36;3.83;;;2.15;;
46897;SDS011;32646;50.958;6.258;2023-08-30T12:32:03;4.30;;;1.92;;
46897;SDS011;32646;50.958;6.258;2023-08-30T12:34:30;4.50;;;1.98;;
46897;SDS011;32646;50.958;6.258;2023-08-30T12:36:56;3.63;;;1.60;;
46897;SDS011;32646;50.958;6.258;2023-08-30T12:39:23;3.83;;;1.98;;
46897;SDS011;32646;50.958;6.258;2023-08-30T12:41:49;4.35;;;1.90;;
46897;SDS011;32646;50.958;6.258;2023-08-30T12:44:16;3.53;;;1.73;;
46897;SDS011;32646;50.958;6.258;2023-08-30T12:46:43;4.30;;;1.83;;
46897;SDS011;32646;50.958;6.258;2023-08-30T12:49:10;3.28;;;1.48;;
46897;SDS011;32646;50.958;6.258;2023-08-30T12:51:36;3.83;;;2.10;;
46897;SDS011;32646;50.958;6.258;2023-08-30T12:54:03;3.85;;;1.73;;
46897;SDS011;32646;50.958;6.258;2023-08-30T12:56:30;3.17;;;1.60;;
46897;SDS011;32646;50.958;6.258;2023-08-30T12:58:56;3.67;;;1.90;;
46897;SDS011;32646;50.958;6.258;2023-08-30T13:01:23;3.97;;;1.92;;
46897;SDS011;32646;50.958;6.258;2023-08-30T13:03:49;4.78;;;2.05;;
46897;SDS011;32646;50.958;6.258;2023-08-30T13:06:16;4.38;;;1.88;;
46897;SDS011;32646;50.958;6.258;2023-08-30T13:08:43;5.72;;;2.45;;
46897;SDS011;32646;50.958;6.258;2023-08-30T13:11:09;5.93;;;2.22;;
46897;SDS011;32646;50.958;6.258;2023-08-30T13:13:36;3.83;;;1.92;;
46897;SDS011;32646;50.958;6.258;2023-08-30T13:16:02;4.30;;;2.00;;
46897;SDS011;32646;50.958;6.258;2023-08-30T13:18:29;4.50;;;2.47;;
46897;SDS011;32646;50.958;6.258;2023-08-30T13:20:56;4.25;;;1.98;;
46897;SDS011;32646;50.958;6.258;2023-08-30T13:23:22;4.78;;;2.30;;
46897;SDS011;32646;50.958;6.258;2023-08-30T13:25:49;4.68;;;2.15;;
46897;SDS011;32646;50.958;6.258;2023-08-30T13:28:15;4.55;;;2.00;;
46897;SDS011;32646;50.958;6.258;2023-08-30T13:30:45;5.85;;;2.20;;
46897;SDS011;32646;50.958;6.258;2023-08-30T13:33:12;4.90;;;2.25;;
46897;SDS011;32646;50.958;6.258;2023-08-30T13:35:40;4.53;;;2.03;;
46897;SDS011;32646;50.958;6.258;2023-08-30T13:38:06;4.65;;;2.05;;
46897;SDS011;32646;50.958;6.258;2023-08-30T13:40:33;5.40;;;2.58;;
46897;SDS011;32646;50.958;6.258;2023-08-30T13:42:59;4.72;;;2.05;;
46897;SDS011;32646;50.958;6.258;2023-08-30T13:45:26;5.95;;;2.65;;
46897;SDS011;32646;50.958;6.258;2023-08-30T13:47:53;4.40;;;2.05;;
46897;SDS011;32646;50.958;6.258;2023-08-30T13:50:19;5.90;;;2.35;;
46897;SDS011;32646;50.958;6.258;2023-08-30T13:52:46;6.00;;;2.63;;
46897;SDS011;32646;50.958;6.258;2023-08-30T13:55:13;5.50;;;2.63;;
46897;SDS011;32646;50.958;6.258;2023-08-30T13:57:39;4.65;;;2.20;;
46897;SDS011;32646;50.958;6.258;2023-08-30T14:00:06;5.30;;;2.70;;
46897;SDS011;32646;50.958;6.258;2023-08-30T14:02:33;6.43;;;2.80;;
46897;SDS011;32646;50.958;6.258;2023-08-30T14:04:59;5.53;;;2.92;;
46897;SDS011;32646;50.958;6.258;2023-08-30T14:07:26;6.30;;;2.72;;
46897;SDS011;32646;50.958;6.258;2023-08-30T14:09:53;5.35;;;2.80;;
46897;SDS011;32646;50.958;6.258;2023-08-30T14:12:20;6.55;;;2.85;;
46897;SDS011;32646;50.958;6.258;2023-08-30T14:14:46;6.03;;;2.38;;
46897;SDS011;32646;50.958;6.258;2023-08-30T14:17:13;4.93;;;2.13;;
46897;SDS011;32646;50.958;6.258;2023-08-30T14:19:40;5.70;;;2.50;;
46897;SDS011;32646;50.958;6.258;2023-08-30T14:22:06;5.72;;;2.63;;
46897;SDS011;32646;50.958;6.258;2023-08-30T14:24:33;6.07;;;3.08;;
46897;SDS011;32646;50.958;6.258;2023-08-30T14:27:12;4.72;;;2.38;;
46897;SDS011;32646;50.958;6.258;2023-08-30T14:29:40;5.55;;;2.60;;
46897;SDS011;32646;50.958;6.258;2023-08-30T14:32:09;4.38;;;2.25;;
46897;SDS011;32646;50.958;6.258;2023-08-30T14:43:13;4.50;;;1.98;;
46897;SDS011;32646;50.958;6.258;2023-08-30T14:46:05;5.38;;;2.05;;
46897;SDS011;32646;50.958;6.258;2023-08-30T14:48:40;5.05;;;2.50;;
46897;SDS011;32646;50.958;6.258;2023-08-30T14:51:07;4.97;;;2.58;;
46897;SDS011;32646;50.958;6.258;2023-08-30T14:53:34;4.78;;;2.20;;
46897;SDS011;32646;50.958;6.258;2023-08-30T14:56:01;4.75;;;2.20;;
46897;SDS011;32646;50.958;6.258;2023-08-30T14:58:29;4.78;;;2.50;;
46897;SDS011;32646;50.958;6.258;2023-08-30T15:00:55;9.75;;;3.20;;
46897;SDS011;32646;50.958;6.258;2023-08-30T15:03:22;7.63;;;2.75;;
46897;SDS011;32646;50.958;6.258;2023-08-30T15:05:55;7.07;;;2.90;;
46897;SDS011;32646;50.958;6.258;2023-08-30T15:08:22;5.00;;;2.45;;